Flight Track Log - Related Links

Times and Time Zones

All times are in EDT time to prevent confusion due to time zone crossing. See the N1794X flight status page for this flight to view local times or setup timezone preferences in your user account.

Time Position Orientation Groundspeed Altitude Reporting Facility
EDT Latitude Longitude Course Direction KTS MPH feet Rate Location/Type
Sun 07:58:24 PM 27.5586 -81.9114 299° West 70 81 1,600  Level Miami Center
Sun 07:59:24 PM 27.5764 -81.9381 307° West 69 79 4,000 700 Climbing Miami Center
Sun 08:00:24 PM 27.5944 -81.9644 308° West 106 122 3,000 -450 Descending Miami Center
Sun 08:01:24 PM 27.6161 -81.9961 308° West 112 129 3,100 300 Climbing Miami Center
Sun 08:02:24 PM 27.6361 -82.0250 308° West 112 129 3,600 400 Climbing Miami Center
Sun 08:03:00 PM 27.5996 -82.0159 299° West  Level FlightAware Approximate
Sun 08:03:24 PM 27.6536 -82.0564 302° West 112 129 3,900  Level Miami Center
Sun 08:04:24 PM 27.6775 -82.0900 309° West 143 165 3,900 53 Level Miami Center
Sun 08:05:18 PM 27.7000 -82.1333 300° West 162 186 4,000 -200 Climbing Tampa TRACON
Sun 08:06:24 PM 27.7500 -82.1833 318° Northwest 178 205 3,500 -429 Descending Tampa TRACON
Sun 08:07:24 PM 27.7833 -82.2333 307° West 185 213 3,100 -350 Descending Tampa TRACON
Sun 08:08:24 PM 27.8000 -82.2667 299° West 183 211 2,800 -200 Descending Tampa TRACON
Sun 08:09:24 PM 27.8333 -82.3167 307° West 174 200 2,700 -350 Descending Tampa TRACON
Sun 08:10:24 PM 27.8667 -82.3667 307° West 168 193 2,100 -684 Descending Tampa TRACON
Sun 08:11:18 PM 27.8833 -82.4000 300° West 154 177 1,400 -667 Descending Tampa TRACON
Sun 08:12:12 PM 27.8833 -82.4333 270° West 132 152 900 -526 Descending Tampa TRACON
Sun 08:13:12 PM 27.9000 -82.4667 300° West 104 120 400 -500 Descending Tampa TRACON
Sun 08:15:00 PM 27.9154 -82.4494 90° East  Level Estimated
Sun 08:22:00 PM 27.9154 -82.4494 310° West  Level Estimated
Sun 08:23:00 PM 27.9154 -82.4494 310° West  Level Estimated

Login

Don't have an account? Register now (free) for customized features, flight alerts, and more!